Latest Weather Observations for Mount Keith

IDW60801

Issued at 10:13 pm WST Sunday 20 May 2018 (issued every 10 minutes, with the page automatically refreshed every 10 minutes)

About weather observations | Map of weather stations | Latest weather observations for WA | Other Formats
Station Details ID: 512019 Name: MOUNT KEITH Lat: -27.29 Lon: 120.55 Height: 542.33 m
Data from the previous 72 hours. | See also: Recent months for locations in Western Australia
Date/Time
WST
Temp
°C
App
Temp
°C
Dew
Point
°C
Rel
Hum
%
Delta-T
°C
Wind Press
QNH
hPa
Press
MSL
hPa
Rain since
9am
mm
Dir  Spd
km/h
Gust
km/h
Spd
kts
Gust
kts
20/10:00pm 12.0 7.5 -0.2 43 5.1 ESE 13 15 7 8 1027.9 1026.5 -
20/09:30pm 13.0 8.9 -0.3 40 5.7 ESE 11 15 6 8 1027.9 1026.5 -
20/09:00pm 13.9 9.0 -0.2 38 6.0 ESE 15 17 8 9 1027.9 1026.5 -
20/08:30pm 14.7 9.8 -0.2 36 6.4 ESE 15 20 8 11 1027.6 1026.2 -
20/08:00pm 15.1 10.2 -0.6 34 6.7 SE 15 17 8 9 1027.3 1025.9 -
20/06:30pm 16.8 12.2 -1.3 29 7.8 SE 13 17 7 9 1026.3 1024.9 0.0
20/06:00pm 17.9 13.3 -1.3 27 8.3 SE 13 17 7 9 1026.0 1024.6 0.0
20/05:30pm 18.8 13.4 -1.1 26 8.8 SE 17 22 9 12 1025.7 1024.3 0.0
20/05:00pm 19.8 13.9 -0.8 25 9.2 ESE 20 28 11 15 1025.4 1024.0 0.0
20/04:30pm 20.7 14.3 -1.8 22 9.9 ESE 22 32 12 17 1025.2 1023.8 0.0
20/04:00pm 21.2 15.2 -1.3 22 10.0 ESE 20 30 11 16 1025.0 1023.6 0.0
20/03:30pm 21.3 15.4 -1.9 21 10.3 ESE 19 28 10 15 1025.0 1023.6 0.0
20/03:00pm 21.3 15.5 -1.3 22 10.1 E 19 28 10 15 1025.0 1023.6 0.0
20/02:30pm 21.3 15.8 -1.9 21 10.3 ESE 17 28 9 15 1025.0 1023.6 0.0
20/02:00pm 21.2 15.9 -0.7 23 9.9 ESE 17 28 9 15 1025.1 1023.7 0.0
20/01:30pm 20.6 14.6 -1.8 22 9.9 ESE 20 28 11 15 1025.4 1024.0 0.0
20/01:00pm 20.3 14.3 -1.5 23 9.6 ESE 20 32 11 17 1025.7 1024.3 0.0
20/12:30pm 19.7 13.4 -0.9 25 9.2 ESE 22 33 12 18 1026.2 1024.8 0.0
20/12:00pm 19.7 14.0 -0.9 25 9.1 E 19 30 10 16 1026.7 1025.4 0.0
20/11:30am 18.6 12.9 0.7 30 8.2 E 20 30 11 16 1027.4 1026.0 0.0
20/11:00am 18.2 12.7 2.1 34 7.5 NE 20 28 11 15 1027.8 1026.4 0.0
20/10:30am 16.9 11.0 1.4 35 7.1 ENE 22 30 12 16 1028.2 1026.9 0.0
20/10:00am 16.4 10.4 1.3 36 6.8 ENE 22 32 12 17 1028.5 1027.2 0.0
20/09:30am 15.4 9.5 1.9 40 6.1 ENE 22 30 12 16 1028.7 1027.4 0.0
20/09:00am 14.6 9.2 2.5 44 5.5 ENE 20 28 11 15 1028.9 1027.5 0.0
20/08:30am 13.2 7.5 2.7 49 4.8 E 22 32 12 17 1028.7 1027.4 0.0
20/08:00am 11.7 6.9 2.5 53 4.1 E 17 24 9 13 1028.6 1027.3 0.0
20/07:30am 10.1 6.0 2.0 57 3.5 E 13 22 7 12 1028.4 1027.1 0.0
20/07:00am 8.3 4.5 1.5 62 2.9 E 11 15 6 8 1028.1 1026.8 0.0
20/06:30am 7.4 3.9 1.0 64 2.7 E 9 13 5 7 1027.7 1026.3 0.0
20/06:00am 7.9 4.0 1.3 63 2.8 E 11 15 6 8 1027.5 1026.1 0.0
20/05:30am 8.0 4.1 1.0 61 2.9 E 11 13 6 7 1027.3 1025.9 0.0
20/05:00am 8.4 4.5 0.9 59 3.1 E 11 15 6 8 1027.1 1025.7 0.0
20/04:30am 8.8 4.5 0.8 57 3.3 E 13 17 7 9 1027.0 1025.6 0.0
20/04:00am 9.0 4.7 0.7 56 3.4 E 13 17 7 9 1027.1 1025.7 0.0
20/03:30am 9.6 5.3 0.8 54 3.7 E 13 17 7 9 1027.1 1025.7 0.0
20/03:00am 10.3 5.9 0.6 51 4.1 E 13 17 7 9 1027.1 1025.7 0.0
20/02:30am 11.0 5.9 0.7 49 4.4 E 17 20 9 11 1027.0 1025.6 0.0
20/02:00am 11.5 6.4 0.6 47 4.6 E 17 24 9 13 1027.1 1025.7 0.0
20/01:30am 11.7 6.5 0.2 45 4.9 E 17 24 9 13 1027.0 1025.6 0.0
20/01:00am 11.7 6.9 -0.1 44 4.9 ESE 15 22 8 12 1026.9 1025.5 0.0
20/12:30am 10.7 6.1 -1.0 44 4.8 ESE 13 17 7 9 1026.6 1025.3 0.0
20/12:00am 10.8 6.1 -1.6 42 5.0 ESE 13 17 7 9 1026.6 1025.3 0.0
 
Date/Time
WST
Temp
°C
App
Temp
°C
Dew
Point
°C
Rel
Hum
%
Delta-T
°C
Wind Press
QNH
hPa
Press
MSL
hPa
Rain since
9am
mm
Dir  Spd
km/h
Gust
km/h
Spd
kts
Gust
kts
19/11:30pm 10.6 5.9 -1.8 42 5.0 ESE 13 15 7 8 1026.6 1025.3 0.0
19/11:00pm 10.8 6.4 -2.2 40 5.1 ESE 11 13 6 7 1026.4 1025.1 0.0
19/10:30pm 12.1 7.7 -2.5 36 5.9 ESE 11 15 6 8 1026.6 1025.3 0.0
19/10:00pm 13.5 8.4 -2.0 34 6.3 ESE 15 20 8 11 1026.5 1025.2 0.0
19/09:30pm 14.4 8.9 -2.1 32 6.8 ESE 17 24 9 13 1026.5 1025.2 0.0
19/09:00pm 14.4 8.8 -2.5 31 6.9 SE 17 20 9 11 1026.4 1025.1 0.0
19/08:30pm 14.7 9.5 -2.7 30 7.1 SE 15 20 8 11 1026.3 1024.9 0.0
19/08:00pm 15.3 10.2 -2.2 30 7.3 SE 15 20 8 11 1026.0 1024.6 0.0
19/07:30pm 16.0 10.5 -2.0 29 7.6 SE 17 20 9 11 1025.7 1024.3 0.0
19/07:00pm 15.4 11.0 -2.5 29 7.4 SSE 11 15 6 8 1025.5 1024.1 0.0
19/06:30pm 16.8 12.0 -2.8 26 8.2 SE 13 15 7 8 1025.2 1023.8 0.0
19/06:00pm 17.4 12.9 -3.4 24 8.6 SE 11 13 6 7 1025.0 1023.6 0.0
19/05:30pm 19.2 14.3 -3.6 21 9.6 SE 13 20 7 11 1024.6 1023.2 0.0
19/05:00pm 20.6 14.5 -3.8 19 10.3 ESE 19 26 10 14 1024.4 1023.0 0.0
19/04:38pm 21.2 14.9 -4.0 18 10.7 ESE 20 28 11 15 1024.2 1022.8 0.0
19/04:30pm 21.5 15.5 -3.1 19 10.7 SE 19 26 10 14 1024.1 1022.7 0.0
19/04:27pm 21.4 15.2 -3.1 19 10.6 SE 20 26 11 14 1024.2 1022.8 0.0
19/04:00pm 22.1 16.5 -2.6 19 10.8 SE 17 24 9 13 1024.1 1022.7 0.0
19/03:30pm 22.2 16.2 -3.2 18 11.1 SE 19 28 10 15 1024.1 1022.7 0.0
19/03:00pm 22.2 16.0 -3.2 18 11.0 ESE 20 32 11 17 1024.1 1022.7 0.0
19/02:59pm 22.1 15.9 -3.3 18 11.0 ESE 20 32 11 17 1024.1 1022.7 0.0
19/02:49pm 22.0 15.4 -3.4 18 11.0 SE 22 33 12 18 1024.0 1022.6 0.0
19/02:30pm 22.3 16.4 -2.4 19 10.9 ESE 19 28 10 15 1024.1 1022.7 0.0
19/02:07pm 21.6 16.5 -2.3 20 10.5 SE 15 24 8 13 1024.3 1022.9 0.0
19/02:00pm 21.3 15.7 -2.5 20 10.4 ESE 17 28 9 15 1024.3 1022.9 0.0
19/01:32pm 21.0 15.5 -2.1 21 10.2 E 17 28 9 15 1024.5 1023.1 0.0
19/01:30pm 21.4 15.9 -1.8 21 10.3 E 17 28 9 15 1024.5 1023.1 0.0
19/01:00pm 20.8 15.0 -1.7 22 9.9 E 19 28 10 15 1025.0 1023.6 0.0
19/12:30pm 20.8 15.4 -1.1 23 9.8 ENE 17 24 9 13 1025.4 1024.0 0.0
19/12:00pm 19.5 14.1 -1.0 25 9.1 E 17 28 9 15 1025.8 1024.4 0.0
19/11:30am 17.9 12.4 0.6 31 7.8 ENE 19 24 10 13 1026.4 1025.1 0.0
19/11:00am 17.5 11.7 0.2 31 7.7 ENE 20 26 11 14 1026.9 1025.5 0.0
19/10:30am 17.3 11.1 0.0 31 7.7 NE 22 30 12 16 1027.4 1026.0 0.0
19/10:00am 16.6 10.9 0.3 33 7.2 ENE 20 30 11 16 1027.6 1026.2 0.0
19/09:30am 15.4 8.9 0.4 36 6.6 ENE 24 39 13 21 1027.8 1026.4 0.0
19/09:00am 14.4 8.0 1.0 40 5.9 ENE 24 32 13 17 1027.9 1026.5 0.0
19/08:30am 13.0 7.5 1.7 46 5.0 E 20 30 11 16 1028.0 1026.7 0.0
19/08:00am 11.0 5.7 1.8 53 4.0 E 19 26 10 14 1027.9 1026.5 0.0
19/07:30am 9.2 5.0 1.6 59 3.3 ESE 13 19 7 10 1027.8 1026.4 0.0
19/07:00am 6.4 2.5 0.9 68 2.2 ESE 11 13 6 7 1027.6 1026.2 0.0
19/06:30am 5.3 1.3 0.3 70 2.0 SE 11 13 6 7 1027.5 1026.1 0.0
19/06:00am 5.1 1.4 -0.1 69 2.0 ESE 9 11 5 6 1027.3 1025.9 0.0
19/05:30am 5.1 1.4 0.1 70 2.0 ESE 9 11 5 6 1027.1 1025.7 0.0
19/05:00am 5.5 2.2 -0.1 67 2.2 ESE 7 9 4 5 1027.0 1025.6 0.0
19/04:30am 5.8 2.5 0.0 66 2.3 ESE 7 9 4 5 1027.1 1025.7 0.0
19/04:00am 6.7 3.0 0.2 63 2.6 ESE 9 11 5 6 1027.2 1025.8 0.0
19/03:30am 7.1 3.4 -0.1 60 2.9 ESE 9 11 5 6 1027.2 1025.8 0.0
19/03:00am 7.8 3.8 0.3 59 3.0 ESE 11 13 6 7 1027.1 1025.7 0.0
19/02:30am 8.7 4.7 0.4 56 3.4 ESE 11 11 6 6 1027.0 1025.6 0.0
19/02:00am 10.1 6.1 0.7 52 3.9 E 11 13 6 7 1027.0 1025.6 0.0
19/01:30am 11.2 6.9 0.9 49 4.4 E 13 19 7 10 1027.1 1025.7 0.0
19/01:00am 11.8 7.1 0.9 47 4.7 E 15 26 8 14 1027.0 1025.6 0.0
19/12:30am 12.4 7.3 0.8 45 5.0 E 17 24 9 13 1027.1 1025.7 0.0
19/12:00am 12.8 7.7 0.5 43 5.3 E 17 28 9 15 1027.2 1025.8 0.0
 
Date/Time
WST
Temp
°C
App
Temp
°C
Dew
Point
°C
Rel
Hum
%
Delta-T
°C
Wind Press
QNH
hPa
Press
MSL
hPa
Rain since
9am
mm
Dir  Spd
km/h
Gust
km/h
Spd
kts
Gust
kts
18/11:30pm 13.2 7.7 0.6 42 5.5 E 19 26 10 14 1027.3 1025.9 0.0
18/11:00pm 13.0 8.2 0.1 41 5.5 E 15 22 8 12 1027.4 1026.0 0.0
18/10:30pm 13.3 7.7 -0.3 39 5.8 ESE 19 24 10 13 1027.4 1026.0 0.0
18/10:00pm 13.8 8.5 -0.6 37 6.1 ESE 17 24 9 13 1027.3 1025.9 0.0
18/09:30pm 14.5 8.7 -1.2 34 6.6 ESE 19 26 10 14 1027.1 1025.7 0.0
18/09:00pm 14.8 9.5 -0.9 34 6.7 ESE 17 22 9 12 1027.2 1025.8 0.0
18/08:30pm 15.0 10.1 -0.7 34 6.7 ESE 15 19 8 10 1027.0 1025.6 0.0
18/08:00pm 15.8 10.5 -0.8 32 7.1 SE 17 22 9 12 1026.9 1025.5 0.0
18/07:30pm 16.2 11.0 -0.1 33 7.2 SE 17 20 9 11 1026.7 1025.4 0.0
18/07:00pm 16.7 11.5 -0.1 32 7.4 SE 17 24 9 13 1026.5 1025.2 0.0
18/06:30pm 17.4 12.1 -0.3 30 7.8 SE 17 20 9 11 1026.3 1024.9 0.0
18/06:00pm 18.1 13.2 -0.2 29 8.1 SE 15 19 8 10 1026.0 1024.6 0.0
18/05:30pm 19.0 13.8 0.1 28 8.5 SE 17 22 9 12 1025.7 1024.3 0.0
18/05:00pm 20.0 14.4 -0.1 26 9.1 ESE 19 30 10 16 1025.5 1024.1 0.0
18/04:30pm 20.7 14.9 0.0 25 9.5 ESE 20 30 11 16 1025.3 1023.9 0.0
18/04:00pm 21.2 15.7 0.4 25 9.6 ESE 19 26 10 14 1025.2 1023.8 0.0
18/03:30pm 21.1 15.5 0.9 26 9.4 SE 20 28 11 15 1025.1 1023.7 0.0
18/03:00pm 22.1 17.0 0.6 24 10.0 E 17 28 9 15 1025.1 1023.7 0.0
18/02:30pm 21.6 15.9 0.8 25 9.7 ESE 20 32 11 17 1025.3 1023.9 0.0
18/02:00pm 21.0 15.0 0.8 26 9.4 ESE 22 32 12 17 1025.4 1024.0 0.0
18/01:30pm 20.8 14.9 1.6 28 9.1 E 22 41 12 22 1025.6 1024.2 0.0
18/01:00pm 20.2 14.7 1.6 29 8.7 E 20 32 11 17 1026.0 1024.6 0.0
18/12:30pm 20.2 15.3 2.1 30 8.6 E 17 26 9 14 1026.5 1025.2 0.0
18/12:00pm 19.6 14.3 2.9 33 8.0 ENE 20 30 11 16 1027.2 1025.8 0.0
18/11:30am 18.7 13.5 3.3 36 7.4 ENE 20 28 11 15 1027.8 1026.4 0.0
18/11:00am 17.8 12.6 3.7 39 6.7 ENE 20 28 11 15 1028.4 1027.1 0.0
18/10:30am 16.9 11.4 3.9 42 6.2 ENE 22 30 12 16 1028.9 1027.5 0.0
18/10:00am 16.3 11.2 4.0 44 5.9 ENE 20 30 11 16 1029.1 1027.7 0.0
18/09:30am 15.1 9.2 3.9 47 5.3 ENE 24 33 13 18 1029.2 1027.8 0.0
18/09:00am 14.5 8.6 3.9 49 5.0 E 24 32 13 17 1029.3 1027.9 0.0
18/08:30am 13.7 8.3 4.3 53 4.4 E 22 30 12 16 1029.2 1027.8 0.0
18/08:00am 12.4 7.0 4.6 59 3.6 E 22 33 12 18 1029.1 1027.7 0.0
18/07:30am 10.9 5.6 4.8 66 2.9 E 22 30 12 16 1028.9 1027.5 0.0
18/07:00am 9.8 5.4 4.6 70 2.4 E 17 24 9 13 1028.7 1027.4 0.0
18/06:30am 9.2 4.8 4.6 73 2.1 E 17 20 9 11 1028.6 1027.3 0.0
18/06:00am 9.5 5.1 4.9 73 2.1 E 17 22 9 12 1028.3 1027.0 0.0
18/05:30am 9.7 5.3 4.9 72 2.2 E 17 24 9 13 1028.1 1026.8 0.0
18/05:00am 10.1 5.7 4.9 70 2.4 E 17 24 9 13 1028.1 1026.8 0.0
18/04:30am 10.4 6.0 5.0 69 2.5 E 17 20 9 11 1028.1 1026.8 0.0
18/04:00am 10.8 6.4 4.9 67 2.7 E 17 24 9 13 1028.2 1026.9 0.0
18/03:30am 11.2 6.4 4.9 65 3.0 E 19 26 10 14 1028.2 1026.9 0.0
18/03:00am 11.6 6.6 4.6 62 3.3 E 20 30 11 16 1028.3 1027.0 0.0
18/02:30am 12.0 7.0 4.5 60 3.5 E 20 28 11 15 1028.4 1027.1 0.0
18/02:00am 12.5 7.5 4.5 58 3.7 E 20 30 11 16 1028.6 1027.3 0.0
18/01:30am 12.7 7.6 3.9 55 4.1 E 20 32 11 17 1028.6 1027.3 0.0
18/01:00am 12.8 8.2 3.5 53 4.3 E 17 24 9 13 1028.5 1027.2 0.0
18/12:30am 13.2 8.5 3.3 51 4.6 E 17 22 9 12 1028.4 1027.1 0.0
18/12:00am 13.1 9.1 2.6 49 4.7 E 13 19 7 10 1028.7 1027.4 0.0
 
Date/Time
WST
Temp
°C
App
Temp
°C
Dew
Point
°C
Rel
Hum
%
Delta-T
°C
Wind Press
QNH
hPa
Press
MSL
hPa
Rain since
9am
mm
Dir  Spd
km/h
Gust
km/h
Spd
kts
Gust
kts
17/11:30pm 13.5 8.7 2.7 48 4.9 E 17 24 9 13 1028.6 1027.3 0.0
17/11:00pm 12.0 8.2 1.6 49 4.5 ESE 11 13 6 7 1028.7 1027.4 0.0
17/10:30pm 12.0 8.1 1.1 47 4.7 ESE 11 13 6 7 1028.5 1027.2 0.0

Other Formats:

Comma delimited format used in spreadsheet applications
http://www.bom.gov.au/fwo/IDW60801/IDW60801.99434.axf

JavaScript Object Notation format (JSON) in row-major order
http://www.bom.gov.au/fwo/IDW60801/IDW60801.99434.json